createdAt,value
2017-10-20T00:01:07.475Z,0.00
2017-10-20T00:02:07.473Z,0.00
2017-10-20T00:04:00.852Z,0.00
2017-10-20T00:05:00.857Z,0.00
2017-10-20T00:06:54.267Z,0.00
2017-10-20T00:07:54.264Z,0.00
2017-10-20T00:09:47.145Z,0.00
2017-10-20T00:10:47.148Z,0.00
2017-10-20T00:12:40.560Z,0.00
2017-10-20T00:13:40.541Z,0.00
2017-10-20T00:15:33.937Z,0.00
2017-10-20T00:16:33.936Z,0.00
2017-10-20T00:18:27.342Z,0.00
2017-10-20T00:19:27.328Z,0.00
2017-10-20T00:21:20.715Z,0.00
2017-10-20T00:22:20.721Z,0.00
2017-10-20T00:24:14.128Z,0.00
2017-10-20T00:25:14.114Z,0.00
2017-10-20T00:27:07.503Z,0.00
2017-10-20T00:28:07.507Z,0.00
2017-10-20T00:30:00.915Z,0.00
2017-10-20T00:31:00.902Z,0.00
2017-10-20T00:32:54.329Z,0.00
2017-10-20T00:33:54.296Z,0.00
2017-10-20T00:35:47.681Z,0.00
2017-10-20T00:36:47.694Z,0.00
2017-10-20T00:38:41.095Z,0.00
2017-10-20T00:39:41.086Z,0.00
2017-10-20T00:41:34.480Z,0.00
2017-10-20T00:42:34.475Z,0.00
2017-10-20T00:44:27.883Z,0.00
2017-10-20T00:45:27.868Z,0.00
2017-10-20T00:47:21.256Z,0.00
2017-10-20T00:48:21.271Z,0.00
2017-10-20T00:50:14.669Z,0.00
2017-10-20T00:51:14.654Z,0.00
2017-10-20T00:53:08.044Z,0.00
2017-10-20T00:54:08.049Z,0.00
2017-10-20T00:56:01.456Z,0.00
2017-10-20T00:57:01.442Z,0.00
2017-10-20T00:58:54.841Z,0.00
2017-10-20T00:59:54.846Z,0.00
2017-10-20T01:01:48.255Z,0.00
2017-10-20T01:02:48.244Z,0.00
2017-10-20T01:04:41.629Z,0.00
2017-10-20T01:05:41.636Z,0.00
2017-10-20T01:07:35.041Z,0.00
2017-10-20T01:08:35.031Z,0.00
2017-10-20T01:10:27.921Z,0.00
2017-10-20T01:11:27.925Z,0.00
2017-10-20T01:13:21.332Z,0.00
2017-10-20T01:14:21.327Z,0.00
2017-10-20T01:16:14.709Z,0.00
2017-10-20T01:17:14.713Z,0.00
2017-10-20T01:19:07.627Z,0.00
2017-10-20T01:20:07.614Z,0.00
2017-10-20T01:22:01.001Z,0.00
2017-10-20T01:23:01.004Z,0.00
2017-10-20T01:24:54.414Z,0.00
2017-10-20T01:25:54.400Z,0.00
2017-10-20T01:27:47.790Z,0.00
2017-10-20T01:28:47.797Z,0.00
2017-10-20T01:30:41.200Z,0.00
2017-10-20T01:31:41.186Z,0.00
2017-10-20T01:33:34.586Z,0.00
2017-10-20T01:34:34.592Z,0.00
2017-10-20T01:36:27.997Z,0.00
2017-10-20T01:37:27.983Z,0.00
2017-10-20T01:39:21.391Z,0.00
2017-10-20T01:40:21.376Z,0.00
2017-10-20T01:42:14.767Z,0.00
2017-10-20T01:43:14.774Z,0.00
2017-10-20T01:45:08.201Z,0.00
2017-10-20T01:46:08.164Z,0.00
2017-10-20T01:48:01.551Z,0.00
2017-10-20T01:49:01.554Z,0.00
2017-10-20T01:50:54.969Z,0.00
2017-10-20T01:51:54.951Z,0.00
2017-10-20T01:53:48.342Z,0.00
2017-10-20T01:54:48.344Z,0.00
2017-10-20T01:56:41.756Z,0.00
2017-10-20T01:57:41.754Z,0.00
2017-10-20T01:59:36.131Z,0.00
2017-10-20T02:00:36.136Z,0.00
2017-10-20T02:02:29.548Z,0.00
2017-10-20T02:03:29.529Z,0.00
2017-10-20T02:05:22.917Z,0.00
2017-10-20T02:06:22.933Z,0.00
2017-10-20T02:08:16.348Z,0.00
2017-10-20T02:09:16.328Z,0.00
2017-10-20T02:11:09.734Z,0.00
2017-10-20T02:12:09.721Z,0.00
2017-10-20T02:14:03.108Z,0.00
2017-10-20T02:15:03.114Z,0.00
2017-10-20T02:16:56.520Z,0.00
2017-10-20T02:17:56.506Z,0.00
2017-10-20T02:19:49.893Z,0.00
2017-10-20T02:20:49.897Z,0.00
2017-10-20T02:22:43.330Z,0.00
2017-10-20T02:23:43.297Z,0.00
2017-10-20T02:25:36.680Z,0.00
2017-10-20T02:26:36.693Z,0.00
2017-10-20T02:28:30.095Z,0.00
2017-10-20T02:29:30.109Z,0.00
2017-10-20T02:31:23.470Z,0.00
2017-10-20T02:32:23.473Z,0.00
2017-10-20T02:34:16.882Z,0.00
2017-10-20T02:35:16.866Z,0.00
2017-10-20T02:37:10.264Z,0.00
2017-10-20T02:38:10.263Z,0.00
2017-10-20T02:40:03.665Z,0.00
2017-10-20T02:41:03.652Z,0.00
2017-10-20T02:42:57.039Z,0.00
2017-10-20T02:43:57.046Z,0.00
2017-10-20T02:45:50.451Z,0.00
2017-10-20T02:46:50.442Z,0.00
2017-10-20T02:48:43.849Z,0.00
2017-10-20T02:49:43.831Z,0.00
2017-10-20T02:51:37.236Z,0.00
2017-10-20T02:52:37.249Z,0.00
2017-10-20T02:54:30.646Z,0.00
2017-10-20T02:55:30.632Z,0.00
2017-10-20T02:57:24.025Z,0.00
2017-10-20T02:58:24.029Z,0.00
2017-10-20T03:00:17.437Z,0.00
2017-10-20T03:01:17.424Z,0.00
2017-10-20T03:03:10.811Z,0.00
2017-10-20T03:04:10.813Z,0.00
2017-10-20T03:06:04.231Z,0.00
2017-10-20T03:07:04.217Z,0.00
2017-10-20T03:08:57.623Z,0.00
2017-10-20T03:09:57.688Z,0.00
2017-10-20T03:11:51.032Z,0.00
2017-10-20T03:12:51.010Z,0.00
2017-10-20T03:14:44.400Z,0.00
2017-10-20T03:15:44.404Z,0.00
2017-10-20T03:17:37.809Z,0.00
2017-10-20T03:18:37.797Z,0.00
2017-10-20T03:20:31.195Z,0.00
2017-10-20T03:21:31.190Z,0.00
2017-10-20T03:23:24.596Z,0.00
2017-10-20T03:24:24.583Z,0.00
2017-10-20T03:26:18.041Z,0.00
2017-10-20T03:27:18.030Z,0.00
2017-10-20T03:29:11.405Z,0.00
2017-10-20T03:30:11.393Z,0.00
2017-10-20T03:32:04.780Z,0.00
2017-10-20T03:33:04.784Z,0.00
2017-10-20T03:34:58.193Z,0.00
2017-10-20T03:35:58.202Z,0.00
2017-10-20T03:37:51.564Z,0.00
2017-10-20T03:38:51.570Z,0.00
2017-10-20T03:40:44.977Z,0.00
2017-10-20T03:41:44.963Z,0.00
2017-10-20T03:43:38.375Z,0.00
2017-10-20T03:44:38.357Z,0.00
2017-10-20T03:46:31.746Z,0.00
2017-10-20T03:47:31.749Z,0.00
2017-10-20T03:49:25.161Z,0.00
2017-10-20T03:50:25.139Z,0.00
2017-10-20T03:52:18.529Z,0.00
2017-10-20T03:53:18.532Z,0.00
2017-10-20T03:55:11.954Z,0.00
2017-10-20T03:56:11.930Z,0.00
2017-10-20T03:58:05.315Z,0.00
2017-10-20T03:59:05.322Z,0.00
2017-10-20T04:00:58.759Z,0.00
2017-10-20T04:01:58.725Z,0.00
2017-10-20T04:03:52.182Z,0.00
2017-10-20T04:04:52.125Z,0.00
2017-10-20T04:06:45.522Z,0.00
2017-10-20T04:07:45.525Z,0.00
2017-10-20T04:09:38.901Z,0.00
2017-10-20T04:10:38.908Z,0.00
2017-10-20T04:12:32.307Z,0.00
2017-10-20T04:13:32.292Z,0.00
2017-10-20T04:15:25.688Z,0.00
2017-10-20T04:16:25.693Z,0.00
2017-10-20T04:18:19.118Z,0.00
2017-10-20T04:19:19.107Z,0.00
2017-10-20T04:21:12.483Z,0.00
2017-10-20T04:22:12.491Z,0.00
2017-10-20T04:24:05.897Z,0.00
2017-10-20T04:25:05.881Z,0.00
2017-10-20T04:26:59.267Z,0.00
2017-10-20T04:27:59.275Z,0.00
2017-10-20T04:29:52.240Z,0.00
2017-10-20T04:30:52.184Z,0.00
2017-10-20T04:32:45.567Z,0.00
2017-10-20T04:33:45.578Z,0.00
2017-10-20T04:35:38.975Z,0.00
2017-10-20T04:36:38.961Z,0.00
2017-10-20T04:38:32.353Z,0.00
2017-10-20T04:39:32.350Z,0.00
2017-10-20T04:41:25.261Z,0.00
2017-10-20T04:42:25.245Z,0.00
2017-10-20T04:44:18.632Z,0.00
2017-10-20T04:45:18.637Z,0.00
2017-10-20T04:47:12.059Z,0.00
2017-10-20T04:48:12.039Z,0.00
2017-10-20T04:50:05.425Z,0.00
2017-10-20T04:51:05.430Z,0.00
2017-10-20T04:52:58.836Z,0.00
2017-10-20T04:53:58.822Z,0.00
2017-10-20T04:55:52.235Z,0.00
2017-10-20T04:56:52.240Z,0.00
2017-10-20T04:58:45.648Z,0.00
2017-10-20T04:59:45.634Z,0.00
2017-10-20T05:01:39.025Z,0.00
2017-10-20T05:02:39.040Z,0.00
2017-10-20T05:04:32.434Z,0.00
2017-10-20T05:05:32.440Z,0.00
2017-10-20T05:07:26.825Z,0.00
2017-10-20T05:08:26.850Z,0.00
2017-10-20T05:10:20.230Z,0.00
2017-10-20T05:11:20.205Z,0.00
2017-10-20T05:13:13.640Z,0.00
2017-10-20T05:14:13.600Z,0.00
2017-10-20T05:16:07.827Z,0.00
2017-10-20T05:17:14.606Z,0.00
2017-10-20T05:19:00.417Z,0.00
2017-10-20T05:20:00.383Z,0.00
2017-10-20T05:21:53.771Z,0.00
2017-10-20T05:22:53.783Z,0.00
2017-10-20T05:24:47.189Z,0.00
2017-10-20T05:25:47.172Z,0.00
2017-10-20T05:27:40.553Z,0.00
2017-10-20T05:28:40.558Z,0.00
2017-10-20T05:30:33.980Z,0.00
2017-10-20T05:31:33.962Z,0.00
2017-10-20T05:33:27.352Z,0.00
2017-10-20T05:34:27.357Z,0.00
2017-10-20T05:36:20.760Z,0.00
2017-10-20T05:37:20.747Z,0.00
2017-10-20T05:39:14.137Z,0.00
2017-10-20T05:40:14.140Z,0.00
2017-10-20T05:42:07.549Z,0.00
2017-10-20T05:43:07.533Z,0.00
2017-10-20T05:45:00.922Z,0.00
2017-10-20T05:46:00.926Z,0.00
2017-10-20T05:47:54.330Z,5.63
2017-10-20T05:48:54.336Z,5.63
2017-10-20T05:50:47.765Z,5.63
2017-10-20T05:51:47.752Z,5.63
2017-10-20T05:53:41.231Z,5.63
2017-10-20T05:54:49.791Z,5.63
2017-10-20T05:56:34.563Z,11.25
2017-10-20T05:57:34.545Z,11.25
2017-10-20T05:59:28.222Z,11.25
2017-10-20T06:00:27.927Z,11.25
2017-10-20T06:02:21.349Z,11.25
2017-10-20T06:03:21.394Z,16.88
2017-10-20T06:05:15.855Z,16.88
2017-10-20T06:06:15.764Z,16.88
2017-10-20T06:08:09.131Z,16.88
2017-10-20T06:09:09.158Z,22.50
2017-10-20T06:11:03.550Z,22.50
2017-10-20T06:12:03.569Z,22.50
2017-10-20T06:13:57.936Z,28.13
2017-10-20T06:14:58.033Z,28.13
2017-10-20T06:16:51.380Z,28.13
2017-10-20T06:17:51.313Z,28.13
2017-10-20T06:19:44.763Z,33.75
2017-10-20T06:20:44.751Z,33.75
2017-10-20T06:22:39.140Z,33.75
2017-10-20T06:23:39.119Z,33.75
2017-10-20T06:25:33.553Z,39.38
2017-10-20T06:26:33.580Z,39.38
2017-10-20T06:28:26.997Z,39.38
2017-10-20T06:29:26.923Z,45.00
2017-10-20T06:31:20.421Z,45.00
2017-10-20T06:32:20.346Z,45.00
2017-10-20T06:34:13.726Z,45.00
2017-10-20T06:35:13.717Z,50.63
2017-10-20T06:37:07.206Z,50.63
2017-10-20T06:38:07.163Z,50.63
2017-10-20T06:40:00.589Z,50.63
2017-10-20T06:41:00.507Z,50.63
2017-10-20T06:42:53.956Z,56.25
2017-10-20T06:43:53.921Z,56.25
2017-10-20T06:45:47.340Z,56.25
2017-10-20T06:46:47.317Z,56.25
2017-10-20T06:48:40.741Z,56.25
2017-10-20T06:49:40.742Z,61.88
2017-10-20T06:51:34.095Z,61.88
2017-10-20T06:52:34.107Z,61.88
2017-10-20T06:54:27.474Z,61.88
2017-10-20T06:55:27.476Z,61.88
2017-10-20T06:57:20.881Z,61.88
2017-10-20T06:58:20.887Z,61.88
2017-10-20T07:00:14.301Z,67.50
2017-10-20T07:01:14.311Z,67.50
2017-10-20T07:03:07.752Z,67.50
2017-10-20T07:04:07.734Z,67.50
2017-10-20T07:06:02.099Z,67.50
2017-10-20T07:07:02.097Z,67.50
2017-10-20T07:08:55.465Z,73.13
2017-10-20T07:09:55.481Z,73.13
2017-10-20T07:11:48.866Z,73.13
2017-10-20T07:12:48.886Z,73.13
2017-10-20T07:14:42.261Z,73.13
2017-10-20T07:15:42.281Z,73.13
2017-10-20T07:17:35.665Z,78.75
2017-10-20T07:18:35.689Z,78.75
2017-10-20T07:20:29.110Z,78.75
2017-10-20T07:21:29.074Z,78.75
2017-10-20T07:23:22.479Z,78.75
2017-10-20T07:24:22.518Z,84.38
2017-10-20T07:26:16.844Z,84.38
2017-10-20T07:27:16.879Z,84.38
2017-10-20T07:29:11.885Z,90.00
2017-10-20T07:30:12.297Z,90.00
2017-10-20T07:32:06.635Z,90.00
2017-10-20T07:33:06.570Z,84.38
2017-10-20T07:34:59.780Z,84.38
2017-10-20T07:35:59.607Z,90.00
2017-10-20T07:37:53.141Z,90.00
2017-10-20T07:38:53.026Z,90.00
2017-10-20T07:40:47.545Z,90.00
2017-10-20T07:41:56.050Z,90.00
2017-10-20T07:43:42.446Z,95.63
2017-10-20T07:44:40.827Z,95.63
2017-10-20T07:46:34.242Z,95.63
2017-10-20T07:47:34.258Z,95.63
2017-10-20T07:49:27.644Z,101.25
2017-10-20T07:50:27.627Z,101.25
2017-10-20T07:52:21.053Z,101.25
2017-10-20T07:53:21.052Z,101.25
2017-10-20T07:55:14.423Z,106.88
2017-10-20T07:56:14.428Z,106.88
2017-10-20T07:58:07.828Z,112.50
2017-10-20T07:59:07.815Z,112.50
2017-10-20T08:01:01.240Z,118.13
2017-10-20T08:02:01.245Z,123.75
2017-10-20T08:03:54.667Z,129.38
2017-10-20T08:04:54.661Z,129.38
2017-10-20T08:06:48.046Z,135.00
2017-10-20T08:07:48.044Z,135.00
2017-10-20T08:09:41.472Z,140.63
2017-10-20T08:10:41.441Z,146.25
2017-10-20T08:12:34.902Z,146.25
2017-10-20T08:13:34.919Z,146.25
2017-10-20T08:15:28.781Z,146.25
2017-10-20T08:16:28.885Z,146.25
2017-10-20T08:18:21.717Z,140.63
2017-10-20T08:19:21.697Z,140.63
2017-10-20T08:21:16.077Z,135.00
2017-10-20T08:22:16.063Z,135.00
2017-10-20T08:24:09.454Z,129.38
2017-10-20T08:25:09.460Z,123.75
2017-10-20T08:27:02.869Z,123.75
2017-10-20T08:28:02.855Z,123.75
2017-10-20T08:29:56.271Z,118.13
2017-10-20T08:30:56.248Z,112.50
2017-10-20T08:32:49.640Z,118.13
2017-10-20T08:33:49.656Z,118.13
2017-10-20T08:35:43.058Z,123.75
2017-10-20T08:36:43.051Z,129.38
2017-10-20T08:38:36.454Z,135.00
2017-10-20T08:39:36.467Z,135.00
2017-10-20T08:41:29.861Z,157.50
2017-10-20T08:42:29.854Z,157.50
2017-10-20T08:44:23.387Z,185.63
2017-10-20T08:45:23.377Z,208.13
2017-10-20T08:47:16.755Z,230.63
2017-10-20T08:48:16.762Z,236.25
2017-10-20T08:50:10.161Z,270.00
2017-10-20T08:51:10.499Z,286.88
2017-10-20T08:53:03.580Z,281.25
2017-10-20T08:54:03.531Z,303.75
2017-10-20T08:55:56.904Z,337.50
2017-10-20T08:56:56.979Z,354.38
2017-10-20T08:58:50.526Z,365.63
2017-10-20T08:59:50.553Z,343.13
2017-10-20T09:01:45.037Z,292.50
2017-10-20T09:02:44.958Z,275.63
2017-10-20T09:04:38.379Z,258.75
2017-10-20T09:05:38.397Z,253.13
2017-10-20T09:07:32.781Z,247.50
2017-10-20T09:08:32.895Z,247.50
2017-10-20T09:10:26.258Z,230.63
2017-10-20T09:11:26.195Z,213.75
2017-10-20T09:13:20.507Z,213.75
2017-10-20T09:14:20.007Z,202.50
2017-10-20T09:16:12.957Z,202.50
2017-10-20T09:17:12.969Z,202.50
2017-10-20T09:19:06.423Z,208.13
2017-10-20T09:20:06.427Z,208.13
2017-10-20T09:22:00.871Z,219.38
2017-10-20T09:23:00.895Z,225.00
2017-10-20T09:24:54.319Z,247.50
2017-10-20T09:25:54.332Z,264.38
2017-10-20T09:27:47.701Z,275.63
2017-10-20T09:28:47.727Z,270.00
2017-10-20T09:30:41.143Z,281.25
2017-10-20T09:31:41.158Z,286.88
2017-10-20T09:33:34.525Z,315.00
2017-10-20T09:34:34.554Z,326.25
2017-10-20T09:36:27.946Z,331.88
2017-10-20T09:37:28.170Z,343.13
2017-10-20T09:39:21.399Z,371.25
2017-10-20T09:40:21.460Z,388.13
2017-10-20T09:42:14.837Z,410.63
2017-10-20T09:43:14.814Z,433.13
2017-10-20T09:45:08.229Z,500.63
2017-10-20T09:46:08.242Z,466.88
2017-10-20T09:48:03.372Z,472.50
2017-10-20T09:49:03.390Z,652.50
2017-10-20T09:50:56.750Z,528.75
2017-10-20T09:51:56.783Z,714.38
2017-10-20T09:53:51.060Z,461.25
2017-10-20T09:54:50.155Z,511.88
2017-10-20T09:56:43.561Z,534.38
2017-10-20T09:57:44.163Z,613.13
2017-10-20T09:59:36.969Z,601.88
2017-10-20T10:00:36.963Z,551.25
2017-10-20T10:02:30.339Z,736.88
2017-10-20T10:03:30.385Z,635.63
2017-10-20T10:05:23.815Z,1293.75
2017-10-20T10:06:23.815Z,1158.75
2017-10-20T10:08:17.325Z,984.38
2017-10-20T10:09:17.226Z,883.13
2017-10-20T10:11:10.589Z,765.00
2017-10-20T10:12:10.674Z,680.63
2017-10-20T10:14:04.071Z,1760.63
2017-10-20T10:15:04.056Z,1648.13
2017-10-20T10:16:58.451Z,1940.63
2017-10-20T10:17:58.454Z,2081.25
2017-10-20T10:19:51.894Z,2396.25
2017-10-20T10:20:51.830Z,2075.63
2017-10-20T10:22:45.316Z,1046.25
2017-10-20T10:23:45.335Z,765.00
2017-10-20T10:25:38.720Z,765.00
2017-10-20T10:26:38.740Z,866.25
2017-10-20T10:28:32.117Z,787.50
2017-10-20T10:29:32.174Z,736.88
2017-10-20T10:31:25.604Z,1001.25
2017-10-20T10:32:25.602Z,1170.00
2017-10-20T10:34:19.001Z,1974.38
2017-10-20T10:35:18.993Z,1580.63
2017-10-20T10:37:12.421Z,2216.25
2017-10-20T10:38:12.403Z,2823.75
2017-10-20T10:40:05.771Z,2610.00
2017-10-20T10:41:05.796Z,2233.13
2017-10-20T10:42:59.243Z,2570.63
2017-10-20T10:43:59.231Z,2581.88
2017-10-20T10:45:52.663Z,2536.88
2017-10-20T10:46:52.663Z,2503.13
2017-10-20T10:48:47.104Z,2531.25
2017-10-20T10:49:47.123Z,2581.88
2017-10-20T10:51:40.588Z,2598.75
2017-10-20T10:52:40.613Z,2626.88
2017-10-20T10:54:33.973Z,2671.88
2017-10-20T10:55:33.991Z,2649.38
2017-10-20T10:57:27.414Z,2559.38
2017-10-20T10:58:27.445Z,2469.38
2017-10-20T11:00:20.826Z,2497.50
2017-10-20T11:01:20.856Z,2531.25
2017-10-20T11:03:14.275Z,2520.00
2017-10-20T11:04:14.302Z,2525.63
2017-10-20T11:06:07.701Z,2154.38
2017-10-20T11:07:07.715Z,2188.13
2017-10-20T11:09:01.166Z,2362.50
2017-10-20T11:10:01.146Z,2390.63
2017-10-20T11:11:54.555Z,2300.63
2017-10-20T11:12:54.575Z,2013.75
2017-10-20T11:14:48.005Z,1749.38
2017-10-20T11:15:48.043Z,1884.38
2017-10-20T11:17:41.453Z,2418.75
2017-10-20T11:18:41.463Z,2120.63
2017-10-20T11:20:34.881Z,2340.00
2017-10-20T11:21:34.886Z,2002.50
2017-10-20T11:23:28.311Z,1597.50
2017-10-20T11:24:28.354Z,1816.88
2017-10-20T11:26:21.770Z,1861.88
2017-10-20T11:27:21.774Z,1721.25
2017-10-20T11:29:15.202Z,1226.25
2017-10-20T11:30:15.219Z,1271.25
2017-10-20T11:32:08.618Z,1293.75
2017-10-20T11:33:08.649Z,1085.63
2017-10-20T11:35:02.097Z,1119.38
2017-10-20T11:36:02.087Z,1445.63
2017-10-20T11:37:55.550Z,1552.50
2017-10-20T11:38:55.537Z,1501.88
2017-10-20T11:40:48.980Z,1445.63
2017-10-20T11:41:48.976Z,1496.25
2017-10-20T11:43:43.456Z,1726.88
2017-10-20T11:44:43.390Z,1366.88
2017-10-20T11:46:36.834Z,1468.13
2017-10-20T11:47:36.844Z,1563.75
2017-10-20T11:49:30.242Z,1141.88
2017-10-20T11:50:30.297Z,753.75
2017-10-20T11:52:23.665Z,1046.25
2017-10-20T11:53:23.742Z,1040.63
2017-10-20T11:55:17.164Z,911.25
2017-10-20T11:56:17.098Z,776.25
2017-10-20T11:58:10.596Z,663.75
2017-10-20T11:59:11.496Z,658.13
2017-10-20T12:01:04.958Z,658.13
2017-10-20T12:02:04.976Z,703.13
2017-10-20T12:03:58.391Z,1614.38
2017-10-20T12:04:58.411Z,2047.50
2017-10-20T12:06:51.825Z,1828.13
2017-10-20T12:07:51.875Z,1496.25
2017-10-20T12:09:45.292Z,1766.25
2017-10-20T12:10:45.252Z,1288.13
2017-10-20T12:12:38.677Z,1243.13
2017-10-20T12:13:38.657Z,1366.88
2017-10-20T12:15:32.080Z,877.50
2017-10-20T12:16:32.111Z,1220.63
2017-10-20T12:18:25.550Z,950.63
2017-10-20T12:19:25.576Z,596.25
2017-10-20T12:21:18.923Z,697.50
2017-10-20T12:22:18.962Z,855.00
2017-10-20T12:24:12.362Z,1310.63
2017-10-20T12:25:12.383Z,1170.00
2017-10-20T12:27:05.766Z,1209.38
2017-10-20T12:28:05.804Z,990.00
2017-10-20T12:29:59.244Z,855.00
2017-10-20T12:30:59.253Z,922.50
2017-10-20T12:32:52.669Z,540.00
2017-10-20T12:33:52.676Z,596.25
2017-10-20T12:35:46.091Z,466.88
2017-10-20T12:36:46.091Z,1068.75
2017-10-20T12:38:39.492Z,472.50
2017-10-20T12:39:39.508Z,410.63
2017-10-20T12:41:32.901Z,843.75
2017-10-20T12:42:32.951Z,630.00
2017-10-20T12:44:26.354Z,641.25
2017-10-20T12:45:26.410Z,562.50
2017-10-20T12:47:19.747Z,534.38
2017-10-20T12:48:19.788Z,585.00
2017-10-20T12:50:13.198Z,714.38
2017-10-20T12:51:13.181Z,658.13
2017-10-20T12:53:06.580Z,421.88
2017-10-20T12:54:06.596Z,461.25
2017-10-20T12:56:00.055Z,545.63
2017-10-20T12:57:00.015Z,573.75
2017-10-20T12:58:53.448Z,489.38
2017-10-20T12:59:53.448Z,478.13
2017-10-20T13:01:46.893Z,568.13
2017-10-20T13:02:46.902Z,534.38
2017-10-20T13:04:40.300Z,495.00
2017-10-20T13:05:40.321Z,466.88
2017-10-20T13:07:33.780Z,371.25
2017-10-20T13:08:33.744Z,371.25
2017-10-20T13:10:27.154Z,388.13
2017-10-20T13:11:27.172Z,416.25
2017-10-20T13:13:20.604Z,461.25
2017-10-20T13:14:20.597Z,483.75
2017-10-20T13:16:13.982Z,495.00
2017-10-20T13:17:14.016Z,500.63
2017-10-20T13:19:08.434Z,523.13
2017-10-20T13:20:08.452Z,534.38
2017-10-20T13:22:01.895Z,500.63
2017-10-20T13:23:01.833Z,585.00
2017-10-20T13:24:55.387Z,545.63
2017-10-20T13:25:56.350Z,523.13
2017-10-20T13:27:48.737Z,483.75
2017-10-20T13:28:48.696Z,455.63
2017-10-20T13:30:42.091Z,388.13
2017-10-20T13:31:42.243Z,360.00
2017-10-20T13:33:35.516Z,326.25
2017-10-20T13:34:35.541Z,309.38
2017-10-20T13:36:28.967Z,270.00
2017-10-20T13:37:28.974Z,264.38
2017-10-20T13:39:22.355Z,281.25
2017-10-20T13:40:22.406Z,292.50
2017-10-20T13:42:15.813Z,258.75
2017-10-20T13:43:15.801Z,225.00
2017-10-20T13:45:09.245Z,168.75
2017-10-20T13:46:09.215Z,146.25
2017-10-20T13:48:02.673Z,180.00
2017-10-20T13:49:02.641Z,185.63
2017-10-20T13:50:56.014Z,191.25
2017-10-20T13:51:56.083Z,202.50
2017-10-20T13:53:49.467Z,185.63
2017-10-20T13:54:49.471Z,180.00
2017-10-20T13:56:42.861Z,180.00
2017-10-20T13:57:42.886Z,174.38
2017-10-20T13:59:36.292Z,196.88
2017-10-20T14:00:36.298Z,219.38
2017-10-20T14:02:29.681Z,247.50
2017-10-20T14:03:29.745Z,247.50
2017-10-20T14:05:23.172Z,236.25
2017-10-20T14:06:23.102Z,253.13
2017-10-20T14:08:16.589Z,270.00
2017-10-20T14:09:16.575Z,264.38
2017-10-20T14:11:10.982Z,236.25
2017-10-20T14:12:10.976Z,225.00
2017-10-20T14:14:05.373Z,191.25
2017-10-20T14:15:05.393Z,202.50
2017-10-20T14:16:58.845Z,213.75
2017-10-20T14:17:58.829Z,230.63
2017-10-20T14:19:52.165Z,241.88
2017-10-20T14:20:52.207Z,247.50
2017-10-20T14:22:46.625Z,303.75
2017-10-20T14:25:18.708Z,309.38
2017-10-20T14:26:18.721Z,281.25
2017-10-20T14:28:12.139Z,208.13
2017-10-20T14:29:12.137Z,180.00
2017-10-20T14:31:05.536Z,174.38
2017-10-20T14:32:05.542Z,168.75
2017-10-20T14:33:58.975Z,157.50
2017-10-20T14:34:58.956Z,157.50
2017-10-20T14:36:52.353Z,157.50
2017-10-20T14:37:52.361Z,174.38
2017-10-20T14:39:45.779Z,191.25
2017-10-20T14:40:45.776Z,180.00
2017-10-20T14:42:39.176Z,208.13
2017-10-20T14:43:39.185Z,202.50
2017-10-20T14:45:32.603Z,163.13
2017-10-20T14:46:32.600Z,135.00
2017-10-20T14:48:25.997Z,106.88
2017-10-20T14:49:26.005Z,95.63
2017-10-20T14:51:19.429Z,67.50
2017-10-20T14:52:19.421Z,50.63
2017-10-20T14:54:12.338Z,56.25
2017-10-20T14:55:12.333Z,56.25
2017-10-20T14:57:05.728Z,56.25
2017-10-20T14:58:05.740Z,61.88
2017-10-20T14:59:59.155Z,56.25
2017-10-20T15:00:59.708Z,45.00
2017-10-20T15:02:52.547Z,33.75
2017-10-20T15:03:52.556Z,28.13
2017-10-20T15:05:45.977Z,28.13
2017-10-20T15:06:45.966Z,28.13
2017-10-20T15:08:38.874Z,28.13
2017-10-20T15:09:39.489Z,28.13
2017-10-20T15:11:32.363Z,28.13
2017-10-20T15:12:32.327Z,22.50
2017-10-20T15:14:25.722Z,28.13
2017-10-20T15:15:25.727Z,28.13
2017-10-20T15:17:26.772Z,33.75
2017-10-20T15:18:20.048Z,39.38
2017-10-20T15:20:12.564Z,39.38
2017-10-20T15:21:12.738Z,33.75
2017-10-20T15:23:05.995Z,22.50
2017-10-20T15:24:05.981Z,16.88
2017-10-20T15:25:59.605Z,16.88
2017-10-20T15:26:59.423Z,16.88
2017-10-20T15:28:52.826Z,22.50
2017-10-20T15:29:52.817Z,22.50
2017-10-20T15:31:46.248Z,22.50
2017-10-20T15:32:46.257Z,22.50
2017-10-20T15:34:39.675Z,22.50
2017-10-20T15:35:39.665Z,22.50
2017-10-20T15:37:32.587Z,22.50
2017-10-20T15:38:32.576Z,22.50
2017-10-20T15:40:25.980Z,22.50
2017-10-20T15:41:26.002Z,22.50
2017-10-20T15:43:19.427Z,22.50
2017-10-20T15:44:19.413Z,22.50
2017-10-20T15:46:13.233Z,22.50
2017-10-20T15:47:12.861Z,22.50
2017-10-20T15:49:08.980Z,16.88
2017-10-20T15:50:06.266Z,16.88
2017-10-20T15:51:59.676Z,11.25
2017-10-20T15:52:59.678Z,11.25
2017-10-20T15:54:53.097Z,11.25
2017-10-20T15:55:53.093Z,5.63
2017-10-20T15:57:46.515Z,5.63
2017-10-20T15:58:46.504Z,5.63
2017-10-20T16:00:39.903Z,5.63
2017-10-20T16:01:39.910Z,0.00
2017-10-20T16:03:33.339Z,5.63
2017-10-20T16:04:33.326Z,5.63
2017-10-20T16:06:26.750Z,0.00
2017-10-20T16:07:26.760Z,0.00
2017-10-20T16:09:20.180Z,0.00
2017-10-20T16:10:20.167Z,0.00
2017-10-20T16:12:13.566Z,5.63
2017-10-20T16:13:13.577Z,5.63
2017-10-20T16:15:06.991Z,5.63
2017-10-20T16:16:07.000Z,0.00
2017-10-20T16:18:00.380Z,0.00
2017-10-20T16:19:00.384Z,0.00
2017-10-20T16:20:53.808Z,0.00
2017-10-20T16:21:53.797Z,0.00
2017-10-20T16:23:47.328Z,0.00
2017-10-20T16:24:47.318Z,0.00
2017-10-20T16:26:40.726Z,0.00
2017-10-20T16:27:40.740Z,0.00
2017-10-20T16:29:34.119Z,0.00
2017-10-20T16:30:34.116Z,0.00
2017-10-20T16:32:28.591Z,0.00
2017-10-20T16:33:28.570Z,0.00
2017-10-20T16:35:21.959Z,0.00
2017-10-20T16:36:21.942Z,0.00
2017-10-20T16:38:15.358Z,0.00
2017-10-20T16:39:15.375Z,0.00
2017-10-20T16:41:08.797Z,0.00
2017-10-20T16:42:08.797Z,0.00
2017-10-20T16:44:02.189Z,0.00
2017-10-20T16:45:02.205Z,0.00
2017-10-20T16:46:55.614Z,0.00
2017-10-20T16:47:55.744Z,0.00
2017-10-20T16:49:49.669Z,0.00
2017-10-20T16:50:49.721Z,0.00
2017-10-20T16:52:45.377Z,0.00
2017-10-20T16:53:45.219Z,0.00
2017-10-20T16:55:39.963Z,0.00
2017-10-20T16:56:39.911Z,0.00
2017-10-20T16:58:35.666Z,0.00
2017-10-20T16:59:34.336Z,0.00
2017-10-20T17:02:14.111Z,0.00
2017-10-20T17:03:15.013Z,0.00
2017-10-20T17:05:07.540Z,0.00
2017-10-20T17:06:07.665Z,0.00
2017-10-20T17:08:02.947Z,0.00
2017-10-20T17:09:03.020Z,0.00
2017-10-20T17:10:57.484Z,0.00
2017-10-20T17:11:57.444Z,0.00
2017-10-20T17:13:51.867Z,0.00
2017-10-20T17:14:51.813Z,0.00
2017-10-20T17:16:45.486Z,0.00
2017-10-20T17:17:45.317Z,0.00
2017-10-20T17:19:38.762Z,0.00
2017-10-20T17:20:40.122Z,0.00
2017-10-20T17:22:32.230Z,0.00
2017-10-20T17:23:32.217Z,0.00
2017-10-20T17:25:25.682Z,0.00
2017-10-20T17:26:25.639Z,0.00
2017-10-20T17:28:19.047Z,0.00
2017-10-20T17:29:19.031Z,0.00
2017-10-20T17:31:12.441Z,0.00
2017-10-20T17:32:12.431Z,0.00
2017-10-20T17:34:05.860Z,0.00
2017-10-20T17:35:05.831Z,0.00
2017-10-20T17:36:59.223Z,0.00
2017-10-20T17:37:59.234Z,0.00
2017-10-20T17:39:52.681Z,0.00
2017-10-20T17:40:52.645Z,0.00
2017-10-20T17:42:46.065Z,0.00
2017-10-20T17:43:46.069Z,0.00
2017-10-20T17:45:39.475Z,0.00
2017-10-20T17:46:39.462Z,0.00
2017-10-20T17:48:32.854Z,0.00
2017-10-20T17:49:32.868Z,0.00
2017-10-20T17:51:26.282Z,0.00
2017-10-20T17:52:26.274Z,0.00
2017-10-20T17:54:19.690Z,0.00
2017-10-20T17:55:19.703Z,0.00
2017-10-20T17:57:13.114Z,0.00
2017-10-20T17:58:13.109Z,0.00
2017-10-20T18:00:06.564Z,0.00
2017-10-20T18:01:07.105Z,0.00
2017-10-20T18:03:00.037Z,0.00
2017-10-20T18:04:00.052Z,0.00
2017-10-20T18:05:53.450Z,0.00
2017-10-20T18:06:53.421Z,0.00
2017-10-20T18:08:47.402Z,0.00
2017-10-20T18:09:47.204Z,0.00
2017-10-20T18:11:40.637Z,0.00
2017-10-20T18:12:40.897Z,0.00
2017-10-20T18:14:34.930Z,0.00
2017-10-20T18:15:34.910Z,0.00
2017-10-20T18:17:28.513Z,0.00
2017-10-20T18:18:28.354Z,0.00
2017-10-20T18:20:23.851Z,0.00
2017-10-20T18:21:24.627Z,0.00
2017-10-20T18:23:17.220Z,0.00
2017-10-20T18:24:17.969Z,0.00
2017-10-20T18:26:10.603Z,0.00
2017-10-20T18:27:10.581Z,0.00
2017-10-20T18:29:04.055Z,0.00
2017-10-20T18:30:04.225Z,0.00
2017-10-20T18:31:57.800Z,0.00
2017-10-20T18:32:57.599Z,0.00
2017-10-20T18:34:51.746Z,0.00
2017-10-20T18:35:51.775Z,0.00
2017-10-20T18:37:45.145Z,0.00
2017-10-20T18:38:45.347Z,0.00